Latest Weather Observations for Cocos Island

IDW60801

Issued at 11:35 am WST Monday 15 September 2014 (issued every 30 minutes, with the page automatically refreshed every 10 minutes)

About weather observations | Map of weather stations | Latest weather observations for WA | Other Formats
Station Details ID: 200284 Name: COCOS ISLAND AIRPORT Lat: -12.19 Lon: 96.83 Height: 3.0 m
Data from the previous 72 hours. | See also: Recent months at Cocos Island
Date/Time
WST
Temp
°C
App
Temp
°C
Dew
Point
Rel
Hum
%
Delta-T
°C
Wind Press
QNH
hPa
Press
MSL
hPa
Rain
since 9 am
mm
Dir
 
Spd
km/h
Gust
km/h
Spd
kts
Gust
kts
15/11:30am 27.6 25.8 22.3 73 3.6 E 35 43 19 23 1014.5 - 0.0
15/11:00am 27.6 24.9 21.9 71 3.8 E 39 46 21 25 1014.7 1014.7 0.0
15/10:30am 27.2 25.7 22.0 73 3.5 E 33 44 18 24 1014.5 - 0.0
15/10:00am 27.0 24.9 21.6 72 3.6 E 35 43 19 23 1014.3 - 0.0
15/09:30am 26.9 24.2 21.2 71 3.8 E 37 44 20 24 1014.2 - 0.0
15/09:00am 26.7 24.2 21.6 73 3.4 E 37 43 20 23 1013.9 - 0.0
15/08:30am 26.6 24.4 21.5 73 3.4 E 35 43 19 23 1013.6 - 0.0
15/08:00am 26.4 24.2 21.4 74 3.3 E 35 41 19 22 1013.3 1013.3 0.0
15/07:30am 26.3 24.1 22.1 77 2.8 E 37 43 20 23 1012.9 - 0.0
15/07:00am 26.3 24.7 21.8 76 3.0 E 33 39 18 21 1012.9 - 0.0
15/06:30am 26.3 24.9 22.0 77 2.9 E 32 39 17 21 1012.8 - 0.0
15/06:00am 26.3 24.8 22.1 77 2.8 ENE 33 39 18 21 1012.5 - 0.0
15/05:30am 26.3 25.0 22.1 77 2.8 E 32 35 17 19 1012.6 - 0.0
15/05:00am 26.5 25.4 21.7 75 3.2 E 30 35 16 19 1012.5 1012.5 0.0
15/04:30am 26.4 25.6 21.6 75 3.2 E 28 35 15 19 1012.7 - 0.0
15/04:00am 26.5 25.8 22.5 78 2.7 E 30 35 16 19 1012.9 - 0.0
15/03:30am 26.6 24.9 21.3 72 3.5 E 32 37 17 20 1013.1 - 0.0
15/03:00am 26.7 25.6 21.8 74 3.3 E 30 39 16 21 1013.1 - 0.0
15/02:30am 26.6 25.6 22.0 76 3.1 E 30 37 16 20 1013.3 - 0.0
15/02:00am 26.7 25.8 22.2 76 3.0 E 30 37 16 20 1013.5 1013.5 0.0
15/01:30am 26.8 25.8 22.0 75 3.2 E 30 37 16 20 1013.8 - 0.0
15/01:00am 26.8 26.2 22.0 75 3.2 E 28 35 15 19 1013.7 - 0.0
15/12:30am 26.9 26.8 22.9 79 2.7 E 28 35 15 19 1013.9 - 0.0
15/12:00am 26.8 27.2 22.5 77 2.9 E 24 37 13 20 1013.9 - 0.0
 
Date/Time
WST
Temp
°C
App
Temp
°C
Dew
Point
Rel
Hum
%
Delta-T
°C
Wind Press
QNH
hPa
Press
MSL
hPa
Rain
since 9 am
mm
Dir
 
Spd
km/h
Gust
km/h
Spd
kts
Gust
kts
14/11:30pm 27.0 26.5 22.2 75 3.2 E 28 35 15 19 1014.1 - 0.0
14/11:00pm 27.0 26.4 22.6 77 3.0 E 30 39 16 21 1014.1 1014.1 0.0
14/10:30pm 27.0 26.5 22.2 75 3.2 E 28 39 15 21 1014.0 - 0.0
14/10:00pm 27.1 27.3 22.8 77 2.9 E 26 33 14 18 1013.9 - 0.0
14/09:30pm 27.0 26.5 22.2 75 3.2 E 28 35 15 19 1013.5 - 0.0
14/09:00pm 27.2 26.4 22.3 74 3.3 E 30 35 16 19 1013.2 - 0.0
14/08:30pm 27.1 26.8 22.5 76 3.1 E 28 37 15 20 1013.1 - 0.0
14/08:00pm 27.1 27.2 22.5 76 3.1 E 26 35 14 19 1012.8 1012.8 0.0
14/07:30pm 27.2 27.0 22.1 73 3.4 E 26 33 14 18 1012.6 - 0.0
14/07:00pm 27.4 26.5 22.2 73 3.5 E 30 35 16 19 1012.5 - 0.0
14/06:30pm 27.6 26.3 21.3 68 4.2 E 30 39 16 21 1012.4 - 0.0
14/06:00pm 28.0 26.9 21.7 68 4.2 E 30 37 16 20 1012.1 - 0.0
14/05:30pm 28.1 27.4 22.5 71 3.8 E 30 39 16 21 1012.0 - 0.0
14/05:00pm 28.4 27.5 22.2 69 4.2 E 30 37 16 20 1011.9 1011.9 0.0
14/04:30pm 28.5 27.5 21.3 65 4.8 E 28 35 15 19 1012.1 - 0.0
14/04:00pm 28.4 26.8 21.5 66 4.6 E 32 39 17 21 1012.1 - 0.0
14/03:30pm 28.3 27.5 22.4 70 4.0 E 30 39 16 21 1012.3 - 0.0
14/03:00pm 27.9 26.8 21.8 69 4.1 E 30 37 16 20 1012.5 - 0.0
14/02:30pm 28.1 27.3 22.3 70 3.9 E 30 37 16 20 1012.8 - 0.0
14/02:00pm 28.1 27.4 21.8 68 4.2 ESE 28 41 15 22 1013.1 1013.1 0.0
14/01:30pm 28.3 27.5 21.6 67 4.5 E 28 35 15 19 1013.5 - 0.0
14/01:00pm 28.2 28.5 21.6 67 4.4 E 22 30 12 16 1013.7 - 0.0
14/12:30pm 27.5 28.7 22.5 74 3.4 ESE 20 28 11 15 1014.0 - 0.0
14/12:00pm 26.8 27.7 21.9 74 3.3 ESE 20 28 11 15 1014.3 - 0.0
14/11:30am 26.6 25.7 22.1 76 3.0 E 30 39 16 21 1014.5 - 0.0
14/11:00am 27.4 26.4 22.0 72 3.6 E 30 37 16 20 1014.6 1014.6 0.0
14/10:30am 27.4 27.5 22.5 74 3.3 E 26 33 14 18 1014.5 - 0.0
14/10:00am 26.7 26.9 22.1 76 3.1 ESE 24 35 13 19 1014.3 - 0.0
14/09:30am 27.3 26.2 21.1 69 4.1 E 28 35 15 19 1014.2 - 0.0
14/09:00am 27.0 26.1 21.4 71 3.7 E 28 39 15 21 1013.9 - 0.0
14/08:30am 26.6 25.9 21.8 75 3.2 E 28 39 15 21 1013.7 - 0.0
14/08:00am 26.6 25.9 21.0 71 3.7 ESE 26 37 14 20 1013.4 1013.4 0.0
14/07:30am 26.3 25.1 20.8 71 3.6 E 28 39 15 21 1013.2 - 0.0
14/07:00am 26.5 24.7 21.1 72 3.6 E 32 39 17 21 1012.9 - 0.0
14/06:30am 26.4 25.6 21.6 75 3.2 ESE 28 39 15 21 1012.5 - 0.0
14/06:00am 26.5 25.1 21.2 72 3.5 E 30 39 16 21 1012.4 - 0.0
14/05:30am 26.4 26.1 21.8 76 3.1 E 26 37 14 20 1012.1 - 0.0
14/05:00am 26.3 25.6 21.0 72 3.5 E 26 33 14 18 1012.2 1012.2 0.0
14/04:30am 26.5 26.4 21.4 73 3.4 E 24 32 13 17 1012.2 - 0.0
14/04:00am 26.5 25.9 21.2 72 3.5 E 26 35 14 19 1012.5 - 0.0
14/03:30am 26.6 25.8 21.6 74 3.3 E 28 37 15 20 1012.7 - 0.0
14/03:00am 26.6 27.3 21.6 74 3.3 E 20 30 11 16 1013.0 - 0.0
14/02:30am 26.7 26.7 21.6 73 3.4 E 24 32 13 17 1013.1 - 0.0
14/02:00am 26.6 26.9 21.5 73 3.4 E 22 28 12 15 1013.4 1013.4 0.0
14/01:30am 26.7 26.3 21.6 73 3.4 E 26 35 14 19 1013.4 - 0.0
14/01:00am 26.9 27.1 22.0 74 3.3 E 24 32 13 17 1013.7 - 0.0
14/12:30am 27.0 26.0 21.3 71 3.8 E 28 32 15 17 1013.9 - 0.0
14/12:00am 26.7 27.7 22.2 76 3.0 E 20 28 11 15 1013.9 - 0.0
 
Date/Time
WST
Temp
°C
App
Temp
°C
Dew
Point
Rel
Hum
%
Delta-T
°C
Wind Press
QNH
hPa
Press
MSL
hPa
Rain
since 9 am
mm
Dir
 
Spd
km/h
Gust
km/h
Spd
kts
Gust
kts
13/11:30pm 26.9 27.4 21.2 71 3.8 E 20 26 11 14 1013.9 - 0.0
13/11:00pm 26.9 27.7 20.7 69 4.1 ESE 17 24 9 13 1014.0 1014.0 0.0
13/10:30pm 26.9 27.5 21.0 70 3.9 E 19 26 10 14 1014.0 - 0.0
13/10:00pm 27.0 27.3 20.8 69 4.1 E 20 30 11 16 1014.0 - 0.0
13/09:30pm 27.0 26.8 20.6 68 4.2 E 22 28 12 15 1013.5 - 0.0
13/09:00pm 26.2 28.0 22.5 80 2.5 SE 17 22 9 12 1013.2 - 0.0
13/08:30pm 27.0 27.0 20.9 69 4.0 ESE 22 30 12 16 1012.9 - 0.0
13/08:00pm 26.9 28.0 22.0 74 3.3 ESE 19 24 10 13 1012.6 1012.6 0.0
13/07:30pm 27.0 27.8 20.6 68 4.2 E 17 26 9 14 1012.5 - 0.0
13/07:00pm 27.2 27.3 20.0 64 4.7 ESE 19 28 10 15 1012.4 - 0.0
13/06:30pm 27.4 27.9 20.9 67 4.3 E 19 26 10 14 1012.3 - 0.0
13/06:00pm 27.3 28.1 21.4 70 3.9 E 19 24 10 13 1012.2 - 0.0
13/05:30pm 27.4 28.7 21.7 71 3.8 SSE 17 24 9 13 1012.1 - 0.0
13/05:00pm 27.2 27.8 21.3 70 3.9 SE 20 26 11 14 1012.0 1012.0 0.0
13/04:30pm 28.2 29.2 21.0 65 4.8 ESE 17 22 9 12 1012.1 - 0.0
13/04:00pm 28.5 29.5 21.0 64 5.0 ESE 17 26 9 14 1012.3 - 0.0
13/03:30pm 28.0 27.9 19.5 60 5.5 ESE 19 26 10 14 1012.6 - 0.0
13/03:00pm 28.4 28.7 19.5 58 5.8 SE 17 24 9 13 1012.9 - 0.0
13/02:30pm 28.1 28.4 20.3 62 5.1 ESE 19 26 10 14 1013.3 - 0.0
13/02:00pm 28.2 29.1 20.8 64 4.9 SE 17 24 9 13 1013.8 1013.8 0.0
13/01:30pm 28.1 28.8 21.2 66 4.6 ESE 19 26 10 14 1014.2 - 0.0
13/01:00pm 27.9 28.4 19.2 59 5.6 ESE 15 20 8 11 1014.5 - 0.0
13/12:30pm 28.2 29.2 20.3 62 5.2 ESE 15 20 8 11 1014.8 - 0.0
13/12:00pm 27.6 27.9 19.6 61 5.2 SE 17 20 9 11 1015.2 - 0.0
13/11:30am 27.6 27.9 19.6 61 5.2 ESE 17 20 9 11 1015.4 - 0.0
13/11:00am 27.7 28.0 19.7 61 5.2 ESE 17 24 9 13 1015.6 1015.6 0.0
13/10:30am 27.5 26.8 18.2 57 5.9 ESE 19 24 10 13 1015.7 - 0.0
13/10:00am 27.1 26.0 17.4 55 6.1 ESE 19 24 10 13 1015.4 - 0.0
13/09:30am 26.8 26.5 18.3 59 5.4 SE 17 24 9 13 1015.2 - 0.0
13/09:00am 26.1 24.6 17.8 60 5.2 ESE 22 28 12 15 1015.1 - 0.0
13/08:30am 25.4 24.6 18.5 65 4.4 SSE 20 26 11 14 1014.9 - 0.0
13/08:00am 25.2 24.8 18.9 68 4.0 SE 19 26 10 14 1014.8 1014.8 0.0
13/07:30am 25.3 24.9 19.0 68 4.0 SE 19 30 10 16 1014.6 - 0.0
13/07:00am 25.4 24.5 18.1 64 4.6 SE 20 32 11 17 1014.5 - 0.0
13/06:30am 25.4 24.5 18.3 65 4.5 ESE 20 24 11 13 1014.2 - 0.0
13/06:00am 25.2 24.3 18.2 65 4.4 SE 20 28 11 15 1014.0 - 0.0
13/05:30am 25.3 24.3 18.0 64 4.6 ESE 20 26 11 14 1014.0 - 0.0
13/05:00am 25.4 23.9 18.5 65 4.4 ESE 24 32 13 17 1013.9 1013.9 0.0
13/04:30am 25.3 23.5 18.7 67 4.2 SE 26 33 14 18 1014.0 - 0.0
13/04:00am 25.4 24.4 18.8 67 4.2 SE 22 30 12 16 1014.0 - 0.0
13/03:30am 25.4 23.7 19.0 67 4.1 SE 26 33 14 18 1014.3 - 0.0
13/03:00am 25.6 23.9 19.0 67 4.2 SE 26 35 14 19 1014.5 - 0.0
13/02:30am 25.6 24.0 19.2 67 4.1 SE 26 32 14 17 1014.7 - 0.0
13/02:00am 25.8 23.8 19.1 66 4.3 SE 28 35 15 19 1015.0 1015.0 0.0
13/01:30am 26.0 23.9 19.0 65 4.5 SE 28 37 15 20 1015.1 - 0.0
13/01:00am 26.2 24.0 18.7 63 4.8 SE 28 35 15 19 1015.4 - 0.0
13/12:30am 26.5 24.0 18.1 60 5.3 SE 28 35 15 19 1015.6 - 0.0
13/12:00am 26.5 24.2 18.5 61 5.1 SE 28 35 15 19 1015.6 - 0.0
 
Date/Time
WST
Temp
°C
App
Temp
°C
Dew
Point
Rel
Hum
%
Delta-T
°C
Wind Press
QNH
hPa
Press
MSL
hPa
Rain
since 9 am
mm
Dir
 
Spd
km/h
Gust
km/h
Spd
kts
Gust
kts
12/11:30pm 26.5 24.2 19.4 65 4.6 SE 30 39 16 21 1015.7 - 0.0
12/11:00pm 26.7 23.9 19.1 63 4.9 SE 32 41 17 22 1015.6 1015.6 0.0
12/10:30pm 26.6 24.4 19.6 65 4.5 SE 30 41 16 22 1015.3 - 0.0
12/10:00pm 26.5 25.5 21.2 72 3.5 ESE 28 43 15 23 1014.9 - 0.0
12/09:30pm 26.9 24.2 19.3 63 4.9 ESE 32 41 17 22 1014.6 - 0.0
12/09:00pm 26.9 26.0 20.7 69 4.1 ESE 26 33 14 18 1014.5 - 0.0
12/08:30pm 26.9 25.4 20.3 67 4.3 ESE 28 35 15 19 1014.2 - 0.0
12/08:00pm 26.9 24.6 20.2 66 4.4 ESE 32 41 17 22 1013.9 1013.9 0.0
12/07:30pm 27.1 25.0 20.6 67 4.3 ESE 32 37 17 20 1013.5 - 0.0
12/07:00pm 27.1 25.2 20.9 69 4.1 ESE 32 41 17 22 1013.2 - 0.0
12/06:30pm 27.3 25.6 20.6 67 4.4 ESE 30 41 16 22 1013.2 - 0.0
12/06:00pm 27.7 25.6 20.6 65 4.7 ESE 32 41 17 22 1013.1 - 0.0
12/05:30pm 27.6 25.6 20.8 66 4.5 ESE 32 44 17 24 1013.1 - 0.0
12/05:00pm 27.9 26.3 21.6 68 4.2 ESE 32 41 17 22 1013.1 1013.1 0.0
12/04:30pm 26.8 24.9 22.0 75 3.2 E 35 48 19 26 1013.3 - 0.0
12/04:00pm 27.7 25.6 21.6 69 4.1 E 35 43 19 23 1013.3 - 0.0
12/03:30pm 27.3 25.3 23.2 78 2.8 E 39 52 21 28 1013.6 - 0.0
12/03:00pm 28.0 26.7 22.5 72 3.7 E 33 43 18 23 1013.9 - 0.0
12/02:30pm 28.2 26.3 21.3 66 4.6 ESE 33 44 18 24 1014.3 - 0.0
12/02:00pm 28.0 27.1 22.9 74 3.5 E 32 41 17 22 1014.6 1014.6 0.0
12/01:30pm 27.6 26.0 21.8 70 3.9 E 33 46 18 25 1014.8 - 0.0
12/01:08pm 27.6 27.1 22.1 72 3.7 E 28 46 15 25 1015.1 - 0.0

Other Formats:

Comma delimited format used in spreadsheet applications
http://www.bom.gov.au/fwo/IDW60801/IDW60801.96996.axf

JavaScript Object Notation format (JSON) in row-major order
http://www.bom.gov.au/fwo/IDW60801/IDW60801.96996.json